sensor_id;sensor_type;location;lat;lon;timestamp;pressure;altitude;pressure_sealevel;temperature;humidity
71565;BME280;59397;50.952;14.502;2022-08-19T00:14:38;963.56;;;19.32;91.72
71565;BME280;59397;50.952;14.502;2022-08-19T00:34:08;963.72;;;18.70;95.57
71565;BME280;59397;50.952;14.502;2022-08-19T00:53:40;963.72;;;19.04;97.18
71565;BME280;59397;50.952;14.502;2022-08-19T01:13:13;963.64;;;18.98;100.00
71565;BME280;59397;50.952;14.502;2022-08-19T01:32:32;963.84;;;18.91;100.00
71565;BME280;59397;50.952;14.502;2022-08-19T01:52:03;963.91;;;18.69;100.00
71565;BME280;59397;50.952;14.502;2022-08-19T02:11:35;964.16;;;18.55;100.00
71565;BME280;59397;50.952;14.502;2022-08-19T02:31:08;964.22;;;18.88;100.00
71565;BME280;59397;50.952;14.502;2022-08-19T02:50:37;964.24;;;18.96;100.00
71565;BME280;59397;50.952;14.502;2022-08-19T03:10:09;964.42;;;19.10;100.00
71565;BME280;59397;50.952;14.502;2022-08-19T03:29:40;964.57;;;19.20;100.00
71565;BME280;59397;50.952;14.502;2022-08-19T03:49:13;964.59;;;19.18;100.00
71565;BME280;59397;50.952;14.502;2022-08-19T04:08:45;964.47;;;19.04;100.00
71565;BME280;59397;50.952;14.502;2022-08-19T04:28:16;964.35;;;19.20;100.00
71565;BME280;59397;50.952;14.502;2022-08-19T04:47:45;964.23;;;19.11;100.00
71565;BME280;59397;50.952;14.502;2022-08-19T05:07:17;964.44;;;19.29;100.00
71565;BME280;59397;50.952;14.502;2022-08-19T05:26:50;964.80;;;19.45;100.00
71565;BME280;59397;50.952;14.502;2022-08-19T05:46:20;965.08;;;19.35;100.00
71565;BME280;59397;50.952;14.502;2022-08-19T06:05:51;965.53;;;19.45;100.00
71565;BME280;59397;50.952;14.502;2022-08-19T06:25:24;965.80;;;19.67;100.00
71565;BME280;59397;50.952;14.502;2022-08-19T06:44:56;965.81;;;19.47;100.00
71565;BME280;59397;50.952;14.502;2022-08-19T07:04:29;966.13;;;19.22;100.00
71565;BME280;59397;50.952;14.502;2022-08-19T07:24:02;966.32;;;19.46;100.00
71565;BME280;59397;50.952;14.502;2022-08-19T07:43:35;966.47;;;19.41;100.00
71565;BME280;59397;50.952;14.502;2022-08-19T08:03:07;966.60;;;19.45;100.00
71565;BME280;59397;50.952;14.502;2022-08-19T08:22:42;966.65;;;19.14;100.00
71565;BME280;59397;50.952;14.502;2022-08-19T08:42:12;966.71;;;19.66;100.00
71565;BME280;59397;50.952;14.502;2022-08-19T09:01:42;966.91;;;19.55;100.00
71565;BME280;59397;50.952;14.502;2022-08-19T09:21:14;966.52;;;19.71;100.00
71565;BME280;59397;50.952;14.502;2022-08-19T09:40:46;966.86;;;20.11;100.00
71565;BME280;59397;50.952;14.502;2022-08-19T10:00:19;967.22;;;20.25;98.94
71565;BME280;59397;50.952;14.502;2022-08-19T10:19:53;967.32;;;20.33;96.37
71565;BME280;59397;50.952;14.502;2022-08-19T10:39:20;967.48;;;19.84;100.00
71565;BME280;59397;50.952;14.502;2022-08-19T10:58:53;967.62;;;20.81;94.88
71565;BME280;59397;50.952;14.502;2022-08-19T11:18:27;967.69;;;20.96;92.09
71565;BME280;59397;50.952;14.502;2022-08-19T11:37:57;967.82;;;20.83;91.75
71565;BME280;59397;50.952;14.502;2022-08-19T11:57:28;967.75;;;20.74;92.59
71565;BME280;59397;50.952;14.502;2022-08-19T12:17:03;967.41;;;21.12;90.51
71565;BME280;59397;50.952;14.502;2022-08-19T12:36:37;967.42;;;21.67;85.80
71565;BME280;59397;50.952;14.502;2022-08-19T12:56:13;967.48;;;22.88;83.31
71565;BME280;59397;50.952;14.502;2022-08-19T13:15:44;967.23;;;22.96;80.23
71565;BME280;59397;50.952;14.502;2022-08-19T13:35:15;967.21;;;22.67;79.32
71565;BME280;59397;50.952;14.502;2022-08-19T13:54:46;967.45;;;22.67;81.03
71565;BME280;59397;50.952;14.502;2022-08-19T14:14:15;967.44;;;22.50;80.84
71565;BME280;59397;50.952;14.502;2022-08-19T14:33:48;967.16;;;22.17;81.12
71565;BME280;59397;50.952;14.502;2022-08-19T14:53:22;967.18;;;22.49;81.88
71565;BME280;59397;50.952;14.502;2022-08-19T15:12:51;967.37;;;21.78;85.90
71565;BME280;59397;50.952;14.502;2022-08-19T15:32:25;967.06;;;22.48;82.08
71565;BME280;59397;50.952;14.502;2022-08-19T15:51:55;967.20;;;22.30;84.09
71565;BME280;59397;50.952;14.502;2022-08-19T16:11:27;967.06;;;21.90;86.76
71565;BME280;59397;50.952;14.502;2022-08-19T16:30:54;967.02;;;21.36;90.13
71565;BME280;59397;50.952;14.502;2022-08-19T16:50:25;966.98;;;20.83;90.81
71565;BME280;59397;50.952;14.502;2022-08-19T17:09:56;967.29;;;20.65;91.36
71565;BME280;59397;50.952;14.502;2022-08-19T17:29:24;967.10;;;20.21;94.85
71565;BME280;59397;50.952;14.502;2022-08-19T17:48:56;967.29;;;19.89;95.69
71565;BME280;59397;50.952;14.502;2022-08-19T18:08:27;968.04;;;19.71;96.32
71565;BME280;59397;50.952;14.502;2022-08-19T18:28:00;968.24;;;19.49;98.32
71565;BME280;59397;50.952;14.502;2022-08-19T18:47:32;968.39;;;19.59;97.71
71565;BME280;59397;50.952;14.502;2022-08-19T19:07:03;968.36;;;19.30;100.00
71565;BME280;59397;50.952;14.502;2022-08-19T19:26:38;968.35;;;19.15;100.00
71565;BME280;59397;50.952;14.502;2022-08-19T19:45:56;968.31;;;19.06;100.00
71565;BME280;59397;50.952;14.502;2022-08-19T20:05:28;968.25;;;18.96;100.00
71565;BME280;59397;50.952;14.502;2022-08-19T20:25:00;968.60;;;18.84;100.00
71565;BME280;59397;50.952;14.502;2022-08-19T20:44:32;968.62;;;18.59;100.00
71565;BME280;59397;50.952;14.502;2022-08-19T21:04:04;968.54;;;18.76;100.00
71565;BME280;59397;50.952;14.502;2022-08-19T21:23:36;968.28;;;18.77;100.00
71565;BME280;59397;50.952;14.502;2022-08-19T21:43:09;968.67;;;18.84;100.00
71565;BME280;59397;50.952;14.502;2022-08-19T22:02:40;968.35;;;18.41;100.00
71565;BME280;59397;50.952;14.502;2022-08-19T22:22:11;968.37;;;18.25;100.00
71565;BME280;59397;50.952;14.502;2022-08-19T22:41:43;968.36;;;18.45;100.00
71565;BME280;59397;50.952;14.502;2022-08-19T23:01:15;968.31;;;18.18;100.00
71565;BME280;59397;50.952;14.502;2022-08-19T23:20:48;968.14;;;18.31;100.00
71565;BME280;59397;50.952;14.502;2022-08-19T23:40:19;968.18;;;18.13;100.00
71565;BME280;59397;50.952;14.502;2022-08-19T23:59:49;968.12;;;18.21;100.00
